sensor_id;sensor_type;location;lat;lon;timestamp;pressure;altitude;pressure_sealevel;temperature;humidity
45872;BME280;32333;55.844;-3.210;2023-07-31T00:01:49;98125.25;;;15.14;100.00
45872;BME280;32333;55.844;-3.210;2023-07-31T00:04:17;98124.35;;;14.90;100.00
45872;BME280;32333;55.844;-3.210;2023-07-31T00:06:44;98122.25;;;14.64;100.00
45872;BME280;32333;55.844;-3.210;2023-07-31T00:10:09;98122.19;;;14.71;100.00
45872;BME280;32333;55.844;-3.210;2023-07-31T00:14:36;98117.58;;;14.09;100.00
45872;BME280;32333;55.844;-3.210;2023-07-31T00:17:03;98116.04;;;14.73;100.00
45872;BME280;32333;55.844;-3.210;2023-07-31T00:19:31;98113.16;;;13.16;100.00
45872;BME280;32333;55.844;-3.210;2023-07-31T00:21:59;98108.53;;;13.27;100.00
45872;BME280;32333;55.844;-3.210;2023-07-31T00:24:26;98101.08;;;14.68;100.00
45872;BME280;32333;55.844;-3.210;2023-07-31T00:26:54;98093.35;;;15.28;100.00
45872;BME280;32333;55.844;-3.210;2023-07-31T00:29:22;98094.20;;;14.29;100.00
45872;BME280;32333;55.844;-3.210;2023-07-31T00:31:50;98093.31;;;15.12;100.00
45872;BME280;32333;55.844;-3.210;2023-07-31T00:34:17;98090.08;;;13.92;100.00
45872;BME280;32333;55.844;-3.210;2023-07-31T00:36:46;98090.63;;;14.10;100.00
45872;BME280;32333;55.844;-3.210;2023-07-31T00:39:13;98089.95;;;13.83;100.00
45872;BME280;32333;55.844;-3.210;2023-07-31T00:41:40;98084.07;;;15.00;100.00
45872;BME280;32333;55.844;-3.210;2023-07-31T00:44:35;98073.31;;;15.98;100.00
45872;BME280;32333;55.844;-3.210;2023-07-31T00:47:03;98070.79;;;16.10;100.00
45872;BME280;32333;55.844;-3.210;2023-07-31T00:49:30;98072.54;;;15.84;100.00
45872;BME280;32333;55.844;-3.210;2023-07-31T00:51:59;98080.02;;;14.85;100.00
45872;BME280;32333;55.844;-3.210;2023-07-31T00:54:27;98081.43;;;14.35;100.00
45872;BME280;32333;55.844;-3.210;2023-07-31T00:56:54;98077.58;;;13.82;100.00
45872;BME280;32333;55.844;-3.210;2023-07-31T00:59:22;98069.36;;;15.34;100.00
45872;BME280;32333;55.844;-3.210;2023-07-31T01:01:50;98071.57;;;14.96;100.00
45872;BME280;32333;55.844;-3.210;2023-07-31T01:04:19;98062.96;;;15.66;100.00
45872;BME280;32333;55.844;-3.210;2023-07-31T01:06:54;98063.06;;;14.87;100.00
45872;BME280;32333;55.844;-3.210;2023-07-31T01:09:31;98059.40;;;15.50;100.00
45872;BME280;32333;55.844;-3.210;2023-07-31T01:14:36;98053.16;;;15.46;100.00
45872;BME280;32333;55.844;-3.210;2023-07-31T01:17:04;98052.74;;;14.13;100.00
45872;BME280;32333;55.844;-3.210;2023-07-31T01:19:31;98049.17;;;14.51;100.00
45872;BME280;32333;55.844;-3.210;2023-07-31T01:22:47;98044.51;;;15.17;100.00
45872;BME280;32333;55.844;-3.210;2023-07-31T01:25:26;98042.95;;;13.87;100.00
45872;BME280;32333;55.844;-3.210;2023-07-31T01:28:03;98034.02;;;14.08;100.00
45872;BME280;32333;55.844;-3.210;2023-07-31T01:30:33;98025.11;;;15.98;100.00
45872;BME280;32333;55.844;-3.210;2023-07-31T01:33:02;98025.54;;;16.07;100.00
45872;BME280;32333;55.844;-3.210;2023-07-31T01:35:33;98022.54;;;15.72;100.00
45872;BME280;32333;55.844;-3.210;2023-07-31T01:38:00;98023.25;;;14.04;100.00
45872;BME280;32333;55.844;-3.210;2023-07-31T01:40:28;98014.88;;;15.65;100.00
45872;BME280;32333;55.844;-3.210;2023-07-31T01:44:35;98011.53;;;14.46;100.00
45872;BME280;32333;55.844;-3.210;2023-07-31T01:47:02;98013.32;;;14.12;100.00
45872;BME280;32333;55.844;-3.210;2023-07-31T01:49:29;98002.92;;;14.93;100.00
45872;BME280;32333;55.844;-3.210;2023-07-31T01:51:57;97998.41;;;15.10;100.00
45872;BME280;32333;55.844;-3.210;2023-07-31T01:54:25;98006.50;;;13.48;100.00
45872;BME280;32333;55.844;-3.210;2023-07-31T01:56:52;98003.88;;;14.62;100.00
45872;BME280;32333;55.844;-3.210;2023-07-31T01:59:19;98001.24;;;14.61;100.00
45872;BME280;32333;55.844;-3.210;2023-07-31T02:01:46;97997.55;;;15.97;100.00
45872;BME280;32333;55.844;-3.210;2023-07-31T02:04:14;97996.18;;;15.72;100.00
45872;BME280;32333;55.844;-3.210;2023-07-31T02:06:41;97994.29;;;15.02;100.00
45872;BME280;32333;55.844;-3.210;2023-07-31T02:09:09;97992.57;;;15.46;100.00
45872;BME280;32333;55.844;-3.210;2023-07-31T02:11:36;97995.81;;;12.70;100.00
45872;BME280;32333;55.844;-3.210;2023-07-31T02:14:35;97986.59;;;14.64;100.00
45872;BME280;32333;55.844;-3.210;2023-07-31T02:17:02;97981.77;;;15.64;100.00
45872;BME280;32333;55.844;-3.210;2023-07-31T02:19:32;97984.39;;;14.18;100.00
45872;BME280;32333;55.844;-3.210;2023-07-31T02:21:59;97983.71;;;14.31;100.00
45872;BME280;32333;55.844;-3.210;2023-07-31T02:24:26;97989.12;;;14.08;100.00
45872;BME280;32333;55.844;-3.210;2023-07-31T02:26:53;97986.57;;;12.22;100.00
45872;BME280;32333;55.844;-3.210;2023-07-31T02:29:22;97980.88;;;15.02;100.00
45872;BME280;32333;55.844;-3.210;2023-07-31T02:31:49;97977.57;;;15.07;100.00
45872;BME280;32333;55.844;-3.210;2023-07-31T02:34:16;97979.51;;;15.13;100.00
45872;BME280;32333;55.844;-3.210;2023-07-31T02:36:44;97980.72;;;14.51;100.00
45872;BME280;32333;55.844;-3.210;2023-07-31T02:39:11;97973.03;;;15.55;100.00
45872;BME280;32333;55.844;-3.210;2023-07-31T02:41:39;97968.63;;;14.39;100.00
45872;BME280;32333;55.844;-3.210;2023-07-31T02:44:35;97959.83;;;15.44;100.00
45872;BME280;32333;55.844;-3.210;2023-07-31T02:47:03;97970.25;;;14.26;100.00
45872;BME280;32333;55.844;-3.210;2023-07-31T02:49:30;97965.94;;;15.69;100.00
45872;BME280;32333;55.844;-3.210;2023-07-31T02:51:59;97968.15;;;14.19;100.00
45872;BME280;32333;55.844;-3.210;2023-07-31T02:54:26;97964.84;;;14.42;100.00
45872;BME280;32333;55.844;-3.210;2023-07-31T02:56:53;97971.39;;;13.56;100.00
45872;BME280;32333;55.844;-3.210;2023-07-31T02:59:21;97967.66;;;14.64;100.00
45872;BME280;32333;55.844;-3.210;2023-07-31T03:01:48;97968.54;;;14.21;100.00
45872;BME280;32333;55.844;-3.210;2023-07-31T03:04:16;97964.34;;;14.84;100.00
45872;BME280;32333;55.844;-3.210;2023-07-31T03:06:43;97959.50;;;16.21;100.00
45872;BME280;32333;55.844;-3.210;2023-07-31T03:09:10;97954.55;;;15.46;100.00
45872;BME280;32333;55.844;-3.210;2023-07-31T03:11:37;97948.14;;;15.75;100.00
45872;BME280;32333;55.844;-3.210;2023-07-31T03:14:35;97945.06;;;14.33;100.00
45872;BME280;32333;55.844;-3.210;2023-07-31T03:17:03;97944.20;;;14.71;100.00
45872;BME280;32333;55.844;-3.210;2023-07-31T03:19:31;97941.10;;;15.17;100.00
45872;BME280;32333;55.844;-3.210;2023-07-31T03:21:58;97939.69;;;15.23;100.00
45872;BME280;32333;55.844;-3.210;2023-07-31T03:24:26;97942.32;;;14.86;100.00
45872;BME280;32333;55.844;-3.210;2023-07-31T03:26:53;97944.19;;;15.83;100.00
45872;BME280;32333;55.844;-3.210;2023-07-31T03:29:21;97944.95;;;15.79;100.00
45872;BME280;32333;55.844;-3.210;2023-07-31T03:31:48;97948.29;;;16.23;100.00
45872;BME280;32333;55.844;-3.210;2023-07-31T03:34:15;97951.88;;;14.69;100.00
45872;BME280;32333;55.844;-3.210;2023-07-31T03:36:43;97940.10;;;14.42;100.00
45872;BME280;32333;55.844;-3.210;2023-07-31T03:39:10;97944.16;;;13.92;100.00
45872;BME280;32333;55.844;-3.210;2023-07-31T03:41:38;97936.86;;;14.53;100.00
45872;BME280;32333;55.844;-3.210;2023-07-31T03:44:35;97934.29;;;15.19;100.00
45872;BME280;32333;55.844;-3.210;2023-07-31T03:47:03;97930.50;;;16.00;100.00
45872;BME280;32333;55.844;-3.210;2023-07-31T03:49:31;97929.14;;;14.94;100.00
45872;BME280;32333;55.844;-3.210;2023-07-31T03:51:59;97928.06;;;15.20;100.00
45872;BME280;32333;55.844;-3.210;2023-07-31T03:54:26;97923.39;;;14.79;100.00
45872;BME280;32333;55.844;-3.210;2023-07-31T03:56:53;97923.10;;;15.10;100.00
45872;BME280;32333;55.844;-3.210;2023-07-31T03:59:22;97922.38;;;15.14;100.00
45872;BME280;32333;55.844;-3.210;2023-07-31T04:01:51;97929.97;;;13.26;100.00
45872;BME280;32333;55.844;-3.210;2023-07-31T04:04:18;97921.34;;;13.75;100.00
45872;BME280;32333;55.844;-3.210;2023-07-31T04:06:46;97920.34;;;14.65;100.00
45872;BME280;32333;55.844;-3.210;2023-07-31T04:09:13;97916.23;;;14.63;100.00
45872;BME280;32333;55.844;-3.210;2023-07-31T04:11:40;97914.60;;;15.04;100.00
45872;BME280;32333;55.844;-3.210;2023-07-31T04:14:35;97905.05;;;15.40;100.00
45872;BME280;32333;55.844;-3.210;2023-07-31T04:17:02;97905.28;;;15.57;100.00
45872;BME280;32333;55.844;-3.210;2023-07-31T04:19:29;97915.17;;;13.39;100.00
45872;BME280;32333;55.844;-3.210;2023-07-31T04:21:58;97905.71;;;14.27;100.00
45872;BME280;32333;55.844;-3.210;2023-07-31T04:24:26;97905.14;;;15.00;100.00
45872;BME280;32333;55.844;-3.210;2023-07-31T04:26:53;97906.90;;;13.98;100.00
45872;BME280;32333;55.844;-3.210;2023-07-31T04:29:21;97903.23;;;14.94;100.00
45872;BME280;32333;55.844;-3.210;2023-07-31T04:31:48;97902.72;;;15.01;100.00
45872;BME280;32333;55.844;-3.210;2023-07-31T04:34:16;97898.75;;;15.10;100.00
45872;BME280;32333;55.844;-3.210;2023-07-31T04:36:45;97898.16;;;14.91;100.00
45872;BME280;32333;55.844;-3.210;2023-07-31T04:39:13;97895.18;;;15.42;100.00
45872;BME280;32333;55.844;-3.210;2023-07-31T04:41:40;97893.83;;;15.66;100.00
45872;BME280;32333;55.844;-3.210;2023-07-31T04:44:35;97893.95;;;14.83;100.00
45872;BME280;32333;55.844;-3.210;2023-07-31T04:47:03;97898.09;;;13.98;100.00
45872;BME280;32333;55.844;-3.210;2023-07-31T04:49:31;97894.91;;;13.87;100.00
45872;BME280;32333;55.844;-3.210;2023-07-31T04:51:59;97892.77;;;14.28;100.00
45872;BME280;32333;55.844;-3.210;2023-07-31T04:54:45;97893.42;;;14.00;100.00
45872;BME280;32333;55.844;-3.210;2023-07-31T04:57:13;97898.09;;;13.72;100.00
45872;BME280;32333;55.844;-3.210;2023-07-31T04:59:40;97889.47;;;14.64;100.00
45872;BME280;32333;55.844;-3.210;2023-07-31T05:02:08;97885.59;;;13.92;100.00
45872;BME280;32333;55.844;-3.210;2023-07-31T05:04:36;97885.43;;;13.99;100.00
45872;BME280;32333;55.844;-3.210;2023-07-31T05:07:04;97886.26;;;14.56;100.00
45872;BME280;32333;55.844;-3.210;2023-07-31T05:09:32;97884.44;;;14.37;100.00
45872;BME280;32333;55.844;-3.210;2023-07-31T05:11:59;97884.92;;;13.69;100.00
45872;BME280;32333;55.844;-3.210;2023-07-31T05:14:35;97881.49;;;14.56;100.00
45872;BME280;32333;55.844;-3.210;2023-07-31T05:17:02;97880.61;;;14.53;100.00
45872;BME280;32333;55.844;-3.210;2023-07-31T05:19:31;97880.75;;;15.43;100.00
45872;BME280;32333;55.844;-3.210;2023-07-31T05:21:59;97878.18;;;14.37;100.00
45872;BME280;32333;55.844;-3.210;2023-07-31T05:24:26;97871.53;;;14.54;100.00
45872;BME280;32333;55.844;-3.210;2023-07-31T05:26:55;97875.46;;;14.21;100.00
45872;BME280;32333;55.844;-3.210;2023-07-31T05:29:22;97881.22;;;13.73;100.00
45872;BME280;32333;55.844;-3.210;2023-07-31T05:31:49;97877.02;;;13.87;100.00
45872;BME280;32333;55.844;-3.210;2023-07-31T05:34:16;97879.61;;;14.43;100.00
45872;BME280;32333;55.844;-3.210;2023-07-31T05:36:44;97880.87;;;13.42;100.00
45872;BME280;32333;55.844;-3.210;2023-07-31T05:39:11;97877.49;;;12.98;100.00
45872;BME280;32333;55.844;-3.210;2023-07-31T05:41:39;97871.88;;;13.69;100.00
45872;BME280;32333;55.844;-3.210;2023-07-31T05:44:35;97869.95;;;13.61;100.00
45872;BME280;32333;55.844;-3.210;2023-07-31T05:47:03;97865.77;;;13.76;100.00
45872;BME280;32333;55.844;-3.210;2023-07-31T05:49:32;97867.61;;;13.37;100.00
45872;BME280;32333;55.844;-3.210;2023-07-31T05:51:59;97865.33;;;13.29;100.00
45872;BME280;32333;55.844;-3.210;2023-07-31T05:54:26;97859.68;;;12.91;100.00
45872;BME280;32333;55.844;-3.210;2023-07-31T05:56:54;97857.81;;;12.77;100.00
45872;BME280;32333;55.844;-3.210;2023-07-31T05:59:22;97853.99;;;12.76;100.00
45872;BME280;32333;55.844;-3.210;2023-07-31T06:01:50;97853.02;;;12.79;100.00
45872;BME280;32333;55.844;-3.210;2023-07-31T06:04:17;97854.05;;;13.28;100.00
45872;BME280;32333;55.844;-3.210;2023-07-31T06:06:49;97854.05;;;12.71;100.00
45872;BME280;32333;55.844;-3.210;2023-07-31T06:09:16;97855.22;;;13.16;100.00
45872;BME280;32333;55.844;-3.210;2023-07-31T06:11:44;97853.17;;;13.27;100.00
45872;BME280;32333;55.844;-3.210;2023-07-31T06:14:36;97851.16;;;13.44;100.00
45872;BME280;32333;55.844;-3.210;2023-07-31T06:17:09;97843.51;;;14.17;100.00
45872;BME280;32333;55.844;-3.210;2023-07-31T06:19:37;97844.92;;;13.48;100.00
45872;BME280;32333;55.844;-3.210;2023-07-31T06:22:06;97843.02;;;13.82;100.00
45872;BME280;32333;55.844;-3.210;2023-07-31T06:24:34;97844.36;;;14.47;100.00
45872;BME280;32333;55.844;-3.210;2023-07-31T06:27:01;97841.58;;;14.48;100.00
45872;BME280;32333;55.844;-3.210;2023-07-31T06:29:29;97843.02;;;13.47;100.00
45872;BME280;32333;55.844;-3.210;2023-07-31T06:31:58;97837.99;;;14.84;100.00
45872;BME280;32333;55.844;-3.210;2023-07-31T06:34:26;97834.84;;;14.77;100.00
45872;BME280;32333;55.844;-3.210;2023-07-31T06:36:53;97832.71;;;14.78;100.00
45872;BME280;32333;55.844;-3.210;2023-07-31T06:39:21;97826.76;;;14.85;100.00
45872;BME280;32333;55.844;-3.210;2023-07-31T06:41:48;97829.03;;;14.59;100.00
45872;BME280;32333;55.844;-3.210;2023-07-31T06:44:36;97826.74;;;14.63;100.00
45872;BME280;32333;55.844;-3.210;2023-07-31T06:47:03;97825.19;;;14.32;100.00
45872;BME280;32333;55.844;-3.210;2023-07-31T06:49:31;97825.89;;;15.20;100.00
45872;BME280;32333;55.844;-3.210;2023-07-31T06:51:59;97823.87;;;15.04;100.00
45872;BME280;32333;55.844;-3.210;2023-07-31T06:54:26;97816.43;;;15.55;100.00
45872;BME280;32333;55.844;-3.210;2023-07-31T06:56:53;97811.78;;;14.54;100.00
45872;BME280;32333;55.844;-3.210;2023-07-31T06:59:22;97808.97;;;15.15;100.00
45872;BME280;32333;55.844;-3.210;2023-07-31T07:01:51;97804.63;;;14.26;100.00
45872;BME280;32333;55.844;-3.210;2023-07-31T07:04:18;97802.06;;;14.90;100.00
45872;BME280;32333;55.844;-3.210;2023-07-31T07:06:46;97801.71;;;14.06;100.00
45872;BME280;32333;55.844;-3.210;2023-07-31T07:09:14;97800.86;;;14.59;100.00
45872;BME280;32333;55.844;-3.210;2023-07-31T07:11:42;97797.96;;;14.63;100.00
45872;BME280;32333;55.844;-3.210;2023-07-31T07:14:36;97793.12;;;15.73;100.00
45872;BME280;32333;55.844;-3.210;2023-07-31T07:17:03;97792.68;;;14.90;100.00
45872;BME280;32333;55.844;-3.210;2023-07-31T07:19:31;97785.63;;;14.69;100.00
45872;BME280;32333;55.844;-3.210;2023-07-31T07:21:59;97784.25;;;14.85;100.00
45872;BME280;32333;55.844;-3.210;2023-07-31T07:24:26;97783.18;;;15.02;100.00
45872;BME280;32333;55.844;-3.210;2023-07-31T07:26:53;97780.32;;;16.20;100.00
45872;BME280;32333;55.844;-3.210;2023-07-31T07:29:21;97779.46;;;16.02;100.00
45872;BME280;32333;55.844;-3.210;2023-07-31T07:31:49;97775.56;;;15.88;100.00
45872;BME280;32333;55.844;-3.210;2023-07-31T07:34:16;97773.40;;;16.42;100.00
45872;BME280;32333;55.844;-3.210;2023-07-31T07:36:43;97772.06;;;16.17;100.00
45872;BME280;32333;55.844;-3.210;2023-07-31T07:39:10;97769.47;;;15.12;100.00
45872;BME280;32333;55.844;-3.210;2023-07-31T07:41:38;97767.60;;;15.49;100.00
45872;BME280;32333;55.844;-3.210;2023-07-31T07:44:36;97770.67;;;16.01;100.00
45872;BME280;32333;55.844;-3.210;2023-07-31T07:49:34;97766.12;;;16.69;100.00
45872;BME280;32333;55.844;-3.210;2023-07-31T07:52:02;97764.37;;;15.97;100.00
45872;BME280;32333;55.844;-3.210;2023-07-31T07:55:09;97760.76;;;17.54;100.00
45872;BME280;32333;55.844;-3.210;2023-07-31T07:57:36;97757.64;;;17.05;100.00
45872;BME280;32333;55.844;-3.210;2023-07-31T08:00:04;97754.54;;;17.04;100.00
45872;BME280;32333;55.844;-3.210;2023-07-31T08:02:33;97755.21;;;17.83;100.00
45872;BME280;32333;55.844;-3.210;2023-07-31T08:05:01;97754.08;;;16.78;100.00
45872;BME280;32333;55.844;-3.210;2023-07-31T08:07:28;97748.60;;;16.19;100.00
45872;BME280;32333;55.844;-3.210;2023-07-31T08:09:57;97746.49;;;17.67;100.00
45872;BME280;32333;55.844;-3.210;2023-07-31T08:14:35;97744.73;;;16.67;100.00
45872;BME280;32333;55.844;-3.210;2023-07-31T08:17:03;97742.42;;;16.98;100.00
45872;BME280;32333;55.844;-3.210;2023-07-31T08:19:31;97743.38;;;16.68;100.00
45872;BME280;32333;55.844;-3.210;2023-07-31T08:21:58;97736.56;;;17.64;100.00
45872;BME280;32333;55.844;-3.210;2023-07-31T08:24:25;97733.47;;;17.46;100.00
45872;BME280;32333;55.844;-3.210;2023-07-31T08:26:52;97743.33;;;16.82;100.00
45872;BME280;32333;55.844;-3.210;2023-07-31T08:29:20;97735.61;;;17.51;100.00
45872;BME280;32333;55.844;-3.210;2023-07-31T08:31:47;97736.77;;;15.83;100.00
45872;BME280;32333;55.844;-3.210;2023-07-31T08:34:15;97737.02;;;15.34;100.00
45872;BME280;32333;55.844;-3.210;2023-07-31T08:36:44;97738.12;;;16.75;100.00
45872;BME280;32333;55.844;-3.210;2023-07-31T08:39:12;97738.93;;;16.75;100.00
45872;BME280;32333;55.844;-3.210;2023-07-31T08:41:39;97739.32;;;17.33;100.00
45872;BME280;32333;55.844;-3.210;2023-07-31T08:44:36;97735.97;;;17.24;100.00
45872;BME280;32333;55.844;-3.210;2023-07-31T08:47:04;97734.04;;;15.69;100.00
45872;BME280;32333;55.844;-3.210;2023-07-31T08:49:32;97730.17;;;16.78;100.00
45872;BME280;32333;55.844;-3.210;2023-07-31T08:51:59;97727.73;;;16.09;100.00
45872;BME280;32333;55.844;-3.210;2023-07-31T08:54:26;97727.92;;;16.91;100.00
45872;BME280;32333;55.844;-3.210;2023-07-31T08:56:54;97721.96;;;15.56;100.00
45872;BME280;32333;55.844;-3.210;2023-07-31T08:59:22;97723.29;;;16.76;100.00
45872;BME280;32333;55.844;-3.210;2023-07-31T09:01:53;97718.69;;;17.41;100.00
45872;BME280;32333;55.844;-3.210;2023-07-31T09:04:23;97714.43;;;17.61;100.00
45872;BME280;32333;55.844;-3.210;2023-07-31T09:06:54;97716.55;;;15.90;100.00
45872;BME280;32333;55.844;-3.210;2023-07-31T09:09:24;97713.14;;;15.12;100.00
45872;BME280;32333;55.844;-3.210;2023-07-31T09:11:53;97709.66;;;15.50;100.00
45872;BME280;32333;55.844;-3.210;2023-07-31T09:14:35;97708.68;;;15.15;100.00
45872;BME280;32333;55.844;-3.210;2023-07-31T09:17:04;97703.06;;;15.13;100.00
45872;BME280;32333;55.844;-3.210;2023-07-31T09:19:35;97702.34;;;16.10;100.00
45872;BME280;32333;55.844;-3.210;2023-07-31T09:22:04;97700.46;;;16.01;100.00
45872;BME280;32333;55.844;-3.210;2023-07-31T09:24:34;97696.61;;;14.98;100.00
45872;BME280;32333;55.844;-3.210;2023-07-31T09:27:02;97697.76;;;14.57;100.00
45872;BME280;32333;55.844;-3.210;2023-07-31T09:29:30;97700.50;;;14.30;100.00
45872;BME280;32333;55.844;-3.210;2023-07-31T09:31:57;97696.89;;;14.15;100.00
45872;BME280;32333;55.844;-3.210;2023-07-31T09:34:29;97694.24;;;14.89;100.00
45872;BME280;32333;55.844;-3.210;2023-07-31T09:37:01;97689.03;;;14.88;100.00
45872;BME280;32333;55.844;-3.210;2023-07-31T09:39:29;97687.59;;;16.44;100.00
45872;BME280;32333;55.844;-3.210;2023-07-31T09:41:57;97683.78;;;15.14;100.00
45872;BME280;32333;55.844;-3.210;2023-07-31T09:44:40;97683.58;;;16.63;100.00
45872;BME280;32333;55.844;-3.210;2023-07-31T09:47:21;97677.34;;;16.57;100.00
45872;BME280;32333;55.844;-3.210;2023-07-31T09:49:48;97672.43;;;16.41;100.00
45872;BME280;32333;55.844;-3.210;2023-07-31T09:52:15;97674.13;;;16.31;100.00
45872;BME280;32333;55.844;-3.210;2023-07-31T09:54:42;97663.32;;;16.76;100.00
45872;BME280;32333;55.844;-3.210;2023-07-31T09:57:10;97661.46;;;16.87;100.00
45872;BME280;32333;55.844;-3.210;2023-07-31T09:59:38;97660.85;;;16.69;100.00
45872;BME280;32333;55.844;-3.210;2023-07-31T10:02:09;97657.00;;;17.13;100.00
45872;BME280;32333;55.844;-3.210;2023-07-31T10:04:42;97649.54;;;17.62;100.00
45872;BME280;32333;55.844;-3.210;2023-07-31T10:07:11;97652.03;;;16.98;100.00
45872;BME280;32333;55.844;-3.210;2023-07-31T10:09:38;97653.54;;;16.02;100.00
45872;BME280;32333;55.844;-3.210;2023-07-31T10:14:36;97642.64;;;17.83;100.00
45872;BME280;32333;55.844;-3.210;2023-07-31T10:17:04;97642.29;;;17.01;100.00
45872;BME280;32333;55.844;-3.210;2023-07-31T10:19:35;97643.92;;;17.70;100.00
45872;BME280;32333;55.844;-3.210;2023-07-31T10:22:05;97648.56;;;17.09;100.00
45872;BME280;32333;55.844;-3.210;2023-07-31T10:24:32;97648.06;;;17.05;100.00
45872;BME280;32333;55.844;-3.210;2023-07-31T10:27:02;97647.39;;;16.80;100.00
45872;BME280;32333;55.844;-3.210;2023-07-31T10:29:30;97647.97;;;15.94;100.00
45872;BME280;32333;55.844;-3.210;2023-07-31T10:31:58;97647.34;;;16.70;100.00
45872;BME280;32333;55.844;-3.210;2023-07-31T10:34:27;97650.58;;;15.65;100.00
45872;BME280;32333;55.844;-3.210;2023-07-31T10:37:20;97650.14;;;15.52;100.00
45872;BME280;32333;55.844;-3.210;2023-07-31T10:39:57;97645.39;;;15.17;100.00
45872;BME280;32333;55.844;-3.210;2023-07-31T10:44:37;97653.88;;;16.94;100.00
45872;BME280;32333;55.844;-3.210;2023-07-31T10:47:07;97651.55;;;16.00;100.00
45872;BME280;32333;55.844;-3.210;2023-07-31T10:49:34;97652.28;;;15.49;100.00
45872;BME280;32333;55.844;-3.210;2023-07-31T10:52:03;97649.00;;;15.86;100.00
45872;BME280;32333;55.844;-3.210;2023-07-31T10:54:33;97641.73;;;15.37;100.00
45872;BME280;32333;55.844;-3.210;2023-07-31T10:57:01;97641.06;;;15.95;100.00
45872;BME280;32333;55.844;-3.210;2023-07-31T10:59:34;97641.02;;;15.91;100.00
45872;BME280;32333;55.844;-3.210;2023-07-31T11:02:02;97635.09;;;15.79;100.00
45872;BME280;32333;55.844;-3.210;2023-07-31T11:04:30;97634.92;;;16.52;100.00
45872;BME280;32333;55.844;-3.210;2023-07-31T11:06:57;97634.00;;;16.46;100.00
45872;BME280;32333;55.844;-3.210;2023-07-31T11:09:28;97628.76;;;16.37;100.00
45872;BME280;32333;55.844;-3.210;2023-07-31T11:11:56;97630.86;;;16.30;100.00
45872;BME280;32333;55.844;-3.210;2023-07-31T11:14:36;97629.23;;;16.03;100.00
45872;BME280;32333;55.844;-3.210;2023-07-31T11:17:07;97633.37;;;16.79;100.00
45872;BME280;32333;55.844;-3.210;2023-07-31T11:19:38;97629.91;;;16.02;100.00
45872;BME280;32333;55.844;-3.210;2023-07-31T11:22:05;97626.83;;;16.82;100.00
45872;BME280;32333;55.844;-3.210;2023-07-31T11:24:34;97624.46;;;15.89;100.00
45872;BME280;32333;55.844;-3.210;2023-07-31T11:27:07;97618.34;;;15.79;100.00
45872;BME280;32333;55.844;-3.210;2023-07-31T11:29:35;97612.59;;;15.83;100.00
45872;BME280;32333;55.844;-3.210;2023-07-31T11:32:03;97609.01;;;16.60;100.00
45872;BME280;32333;55.844;-3.210;2023-07-31T11:34:30;97598.50;;;16.89;100.00
45872;BME280;32333;55.844;-3.210;2023-07-31T11:36:57;97601.98;;;16.42;100.00
45872;BME280;32333;55.844;-3.210;2023-07-31T11:39:24;97596.39;;;17.32;100.00
45872;BME280;32333;55.844;-3.210;2023-07-31T11:41:58;97595.68;;;17.03;100.00
45872;BME280;32333;55.844;-3.210;2023-07-31T11:44:40;97602.76;;;16.57;100.00
45872;BME280;32333;55.844;-3.210;2023-07-31T11:47:09;97605.04;;;16.67;100.00
45872;BME280;32333;55.844;-3.210;2023-07-31T11:49:37;97601.53;;;16.02;100.00
45872;BME280;32333;55.844;-3.210;2023-07-31T11:52:05;97606.78;;;16.36;100.00
45872;BME280;32333;55.844;-3.210;2023-07-31T11:54:33;97606.45;;;16.36;100.00
45872;BME280;32333;55.844;-3.210;2023-07-31T11:57:01;97601.40;;;15.53;100.00
45872;BME280;32333;55.844;-3.210;2023-07-31T11:59:30;97601.60;;;17.02;100.00
45872;BME280;32333;55.844;-3.210;2023-07-31T12:01:58;97600.55;;;16.93;100.00
45872;BME280;32333;55.844;-3.210;2023-07-31T12:04:26;97606.49;;;16.57;100.00
45872;BME280;32333;55.844;-3.210;2023-07-31T12:07:20;97609.61;;;16.14;100.00
45872;BME280;32333;55.844;-3.210;2023-07-31T12:09:52;97610.92;;;16.71;100.00
45872;BME280;32333;55.844;-3.210;2023-07-31T12:14:35;97607.40;;;16.64;100.00
45872;BME280;32333;55.844;-3.210;2023-07-31T12:17:09;97597.83;;;17.34;100.00
45872;BME280;32333;55.844;-3.210;2023-07-31T12:19:37;97594.58;;;16.26;100.00
45872;BME280;32333;55.844;-3.210;2023-07-31T12:22:11;97588.60;;;16.97;100.00
45872;BME280;32333;55.844;-3.210;2023-07-31T12:24:40;97587.88;;;17.09;100.00
45872;BME280;32333;55.844;-3.210;2023-07-31T12:27:10;97594.68;;;16.25;100.00
45872;BME280;32333;55.844;-3.210;2023-07-31T12:29:39;97589.71;;;16.52;100.00
45872;BME280;32333;55.844;-3.210;2023-07-31T12:32:19;97593.32;;;16.05;100.00
45872;BME280;32333;55.844;-3.210;2023-07-31T12:34:48;97589.99;;;17.10;100.00
45872;BME280;32333;55.844;-3.210;2023-07-31T12:37:16;97589.70;;;16.47;100.00
45872;BME280;32333;55.844;-3.210;2023-07-31T12:39:44;97590.93;;;16.42;100.00
45872;BME280;32333;55.844;-3.210;2023-07-31T12:44:36;97594.00;;;17.35;100.00
45872;BME280;32333;55.844;-3.210;2023-07-31T12:47:05;97596.70;;;16.44;100.00
45872;BME280;32333;55.844;-3.210;2023-07-31T12:49:34;97604.56;;;16.64;100.00
45872;BME280;32333;55.844;-3.210;2023-07-31T12:52:01;97603.84;;;15.80;100.00
45872;BME280;32333;55.844;-3.210;2023-07-31T12:54:28;97603.50;;;15.96;100.00
45872;BME280;32333;55.844;-3.210;2023-07-31T12:56:57;97605.47;;;15.53;100.00
45872;BME280;32333;55.844;-3.210;2023-07-31T12:59:24;97606.23;;;15.97;100.00
45872;BME280;32333;55.844;-3.210;2023-07-31T13:01:51;97600.31;;;15.22;100.00
45872;BME280;32333;55.844;-3.210;2023-07-31T13:04:19;97597.59;;;15.48;100.00
45872;BME280;32333;55.844;-3.210;2023-07-31T13:06:46;97590.32;;;16.23;100.00
45872;BME280;32333;55.844;-3.210;2023-07-31T13:09:13;97589.27;;;15.85;100.00
45872;BME280;32333;55.844;-3.210;2023-07-31T13:11:40;97584.03;;;15.58;100.00
45872;BME280;32333;55.844;-3.210;2023-07-31T13:14:35;97583.26;;;15.35;100.00
45872;BME280;32333;55.844;-3.210;2023-07-31T13:17:03;97584.11;;;15.62;100.00